sensor_id;sensor_type;location;lat;lon;timestamp;pressure;altitude;pressure_sealevel;temperature
68911;BMP180;55953;51.650;-0.522;2023-04-03T00:01:24;102259.00;;;3.70
68911;BMP180;55953;51.650;-0.522;2023-04-03T00:03:52;102256.60;;;3.80
68911;BMP180;55953;51.650;-0.522;2023-04-03T00:06:21;102259.80;;;3.70
68911;BMP180;55953;51.650;-0.522;2023-04-03T00:08:49;102245.20;;;3.70
68911;BMP180;55953;51.650;-0.522;2023-04-03T00:11:18;102254.60;;;3.70
68911;BMP180;55953;51.650;-0.522;2023-04-03T00:13:46;102246.20;;;3.60
68911;BMP180;55953;51.650;-0.522;2023-04-03T00:16:14;102241.60;;;3.60
68911;BMP180;55953;51.650;-0.522;2023-04-03T00:18:43;102243.20;;;3.58
68911;BMP180;55953;51.650;-0.522;2023-04-03T00:21:13;102242.40;;;3.50
68911;BMP180;55953;51.650;-0.522;2023-04-03T00:23:42;102240.20;;;3.58
68911;BMP180;55953;51.650;-0.522;2023-04-03T00:26:12;102242.80;;;3.50
68911;BMP180;55953;51.650;-0.522;2023-04-03T00:28:41;102234.60;;;3.50
68911;BMP180;55953;51.650;-0.522;2023-04-03T00:31:09;102241.60;;;3.50
68911;BMP180;55953;51.650;-0.522;2023-04-03T00:33:39;102237.20;;;3.40
68911;BMP180;55953;51.650;-0.522;2023-04-03T00:36:09;102235.40;;;3.38
68911;BMP180;55953;51.650;-0.522;2023-04-03T00:38:38;102232.60;;;3.40
68911;BMP180;55953;51.650;-0.522;2023-04-03T00:41:08;102233.00;;;3.40
68911;BMP180;55953;51.650;-0.522;2023-04-03T00:43:37;102233.40;;;3.40
68911;BMP180;55953;51.650;-0.522;2023-04-03T00:46:05;102232.80;;;3.40
68911;BMP180;55953;51.650;-0.522;2023-04-03T00:48:44;102232.80;;;3.40
68911;BMP180;55953;51.650;-0.522;2023-04-03T00:51:26;102234.40;;;3.30
68911;BMP180;55953;51.650;-0.522;2023-04-03T00:54:05;102230.20;;;3.30
68911;BMP180;55953;51.650;-0.522;2023-04-03T00:56:35;102226.80;;;3.30
68911;BMP180;55953;51.650;-0.522;2023-04-03T00:59:23;102227.60;;;3.20
68911;BMP180;55953;51.650;-0.522;2023-04-03T01:01:54;102233.40;;;3.10
68911;BMP180;55953;51.650;-0.522;2023-04-03T01:04:35;102239.20;;;3.10
68911;BMP180;55953;51.650;-0.522;2023-04-03T01:07:13;102234.80;;;3.10
68911;BMP180;55953;51.650;-0.522;2023-04-03T01:09:44;102229.40;;;3.10
68911;BMP180;55953;51.650;-0.522;2023-04-03T01:14:57;102227.80;;;3.10
68911;BMP180;55953;51.650;-0.522;2023-04-03T01:17:44;102229.80;;;3.10
68911;BMP180;55953;51.650;-0.522;2023-04-03T01:20:35;102233.20;;;3.00
68911;BMP180;55953;51.650;-0.522;2023-04-03T01:28:19;102224.60;;;3.00
68911;BMP180;55953;51.650;-0.522;2023-04-03T01:31:21;102224.60;;;3.00
68911;BMP180;55953;51.650;-0.522;2023-04-03T01:33:51;102230.00;;;3.00
68911;BMP180;55953;51.650;-0.522;2023-04-03T01:36:26;102225.20;;;3.00
68911;BMP180;55953;51.650;-0.522;2023-04-03T01:38:56;102228.00;;;3.08
68911;BMP180;55953;51.650;-0.522;2023-04-03T01:41:24;102226.00;;;3.10
68911;BMP180;55953;51.650;-0.522;2023-04-03T01:43:55;102228.80;;;3.12
68911;BMP180;55953;51.650;-0.522;2023-04-03T01:46:23;102222.20;;;3.20
68911;BMP180;55953;51.650;-0.522;2023-04-03T01:48:52;102220.40;;;3.20
68911;BMP180;55953;51.650;-0.522;2023-04-03T01:51:20;102223.60;;;3.14
68911;BMP180;55953;51.650;-0.522;2023-04-03T01:53:48;102215.60;;;3.20
68911;BMP180;55953;51.650;-0.522;2023-04-03T01:56:15;102216.40;;;3.20
68911;BMP180;55953;51.650;-0.522;2023-04-03T01:58:43;102210.80;;;3.20
68911;BMP180;55953;51.650;-0.522;2023-04-03T02:01:12;102218.80;;;3.20
68911;BMP180;55953;51.650;-0.522;2023-04-03T02:03:40;102220.80;;;3.20
68911;BMP180;55953;51.650;-0.522;2023-04-03T02:06:08;102223.40;;;3.20
68911;BMP180;55953;51.650;-0.522;2023-04-03T02:08:39;102220.60;;;3.14
68911;BMP180;55953;51.650;-0.522;2023-04-03T02:11:07;102218.80;;;3.10
68911;BMP180;55953;51.650;-0.522;2023-04-03T02:13:35;102223.20;;;3.10
68911;BMP180;55953;51.650;-0.522;2023-04-03T02:16:10;102225.20;;;3.10
68911;BMP180;55953;51.650;-0.522;2023-04-03T02:18:39;102224.20;;;3.10
68911;BMP180;55953;51.650;-0.522;2023-04-03T02:21:07;102227.00;;;3.10
68911;BMP180;55953;51.650;-0.522;2023-04-03T02:23:34;102225.60;;;3.10
68911;BMP180;55953;51.650;-0.522;2023-04-03T02:26:14;102227.00;;;3.20
68911;BMP180;55953;51.650;-0.522;2023-04-03T02:28:42;102226.00;;;3.22
68911;BMP180;55953;51.650;-0.522;2023-04-03T02:31:10;102226.60;;;3.30
68911;BMP180;55953;51.650;-0.522;2023-04-03T02:33:40;102225.40;;;3.40
68911;BMP180;55953;51.650;-0.522;2023-04-03T02:36:09;102222.80;;;3.42
68911;BMP180;55953;51.650;-0.522;2023-04-03T02:38:38;102222.80;;;3.46
68911;BMP180;55953;51.650;-0.522;2023-04-03T02:41:09;102223.40;;;3.50
68911;BMP180;55953;51.650;-0.522;2023-04-03T02:43:38;102217.80;;;3.50
68911;BMP180;55953;51.650;-0.522;2023-04-03T02:46:07;102215.00;;;3.50
68911;BMP180;55953;51.650;-0.522;2023-04-03T02:48:36;102215.20;;;3.50
68911;BMP180;55953;51.650;-0.522;2023-04-03T02:51:04;102206.60;;;3.50
68911;BMP180;55953;51.650;-0.522;2023-04-03T02:53:32;102209.40;;;3.52
68911;BMP180;55953;51.650;-0.522;2023-04-03T02:56:05;102209.60;;;3.56
68911;BMP180;55953;51.650;-0.522;2023-04-03T02:58:33;102205.60;;;3.50
68911;BMP180;55953;51.650;-0.522;2023-04-03T03:01:02;102204.00;;;3.50
68911;BMP180;55953;51.650;-0.522;2023-04-03T03:03:30;102205.20;;;3.60
68911;BMP180;55953;51.650;-0.522;2023-04-03T03:06:11;102206.40;;;3.60
68911;BMP180;55953;51.650;-0.522;2023-04-03T03:08:41;102201.80;;;3.60
68911;BMP180;55953;51.650;-0.522;2023-04-03T03:11:10;102199.80;;;3.60
68911;BMP180;55953;51.650;-0.522;2023-04-03T03:13:38;102196.40;;;3.56
68911;BMP180;55953;51.650;-0.522;2023-04-03T03:16:07;102200.00;;;3.50
68911;BMP180;55953;51.650;-0.522;2023-04-03T03:18:35;102193.60;;;3.50
68911;BMP180;55953;51.650;-0.522;2023-04-03T03:21:04;102198.40;;;3.40
68911;BMP180;55953;51.650;-0.522;2023-04-03T03:23:32;102194.00;;;3.40
68911;BMP180;55953;51.650;-0.522;2023-04-03T03:26:05;102196.00;;;3.32
68911;BMP180;55953;51.650;-0.522;2023-04-03T03:28:35;102200.00;;;3.40
68911;BMP180;55953;51.650;-0.522;2023-04-03T03:31:06;102194.40;;;3.30
68911;BMP180;55953;51.650;-0.522;2023-04-03T03:33:34;102188.80;;;3.30
68911;BMP180;55953;51.650;-0.522;2023-04-03T03:36:03;102188.60;;;3.26
68911;BMP180;55953;51.650;-0.522;2023-04-03T03:38:31;102190.00;;;3.20
68911;BMP180;55953;51.650;-0.522;2023-04-03T03:40:59;102187.80;;;3.20
68911;BMP180;55953;51.650;-0.522;2023-04-03T03:43:28;102188.40;;;3.20
68911;BMP180;55953;51.650;-0.522;2023-04-03T03:45:56;102185.00;;;3.10
68911;BMP180;55953;51.650;-0.522;2023-04-03T03:48:24;102184.00;;;3.10
68911;BMP180;55953;51.650;-0.522;2023-04-03T03:50:53;102176.60;;;3.10
68911;BMP180;55953;51.650;-0.522;2023-04-03T03:53:24;102177.20;;;3.00
68911;BMP180;55953;51.650;-0.522;2023-04-03T03:55:53;102176.40;;;3.00
68911;BMP180;55953;51.650;-0.522;2023-04-03T03:58:23;102181.20;;;3.00
68911;BMP180;55953;51.650;-0.522;2023-04-03T04:00:50;102179.80;;;2.88
68911;BMP180;55953;51.650;-0.522;2023-04-03T04:03:19;102176.20;;;2.90
68911;BMP180;55953;51.650;-0.522;2023-04-03T04:05:48;102172.60;;;2.80
68911;BMP180;55953;51.650;-0.522;2023-04-03T04:08:16;102180.80;;;2.70
68911;BMP180;55953;51.650;-0.522;2023-04-03T04:10:46;102184.00;;;2.70
68911;BMP180;55953;51.650;-0.522;2023-04-03T04:13:15;102183.00;;;2.70
68911;BMP180;55953;51.650;-0.522;2023-04-03T04:15:45;102179.60;;;2.60
68911;BMP180;55953;51.650;-0.522;2023-04-03T04:18:13;102177.60;;;2.60
68911;BMP180;55953;51.650;-0.522;2023-04-03T04:20:45;102179.00;;;2.60
68911;BMP180;55953;51.650;-0.522;2023-04-03T04:23:14;102178.60;;;2.56
68911;BMP180;55953;51.650;-0.522;2023-04-03T04:25:47;102176.80;;;2.60
68911;BMP180;55953;51.650;-0.522;2023-04-03T04:28:16;102180.80;;;2.50
68911;BMP180;55953;51.650;-0.522;2023-04-03T04:30:45;102177.20;;;2.50
68911;BMP180;55953;51.650;-0.522;2023-04-03T04:33:13;102175.40;;;2.50
68911;BMP180;55953;51.650;-0.522;2023-04-03T04:35:42;102178.40;;;2.50
68911;BMP180;55953;51.650;-0.522;2023-04-03T04:38:12;102174.00;;;2.40
68911;BMP180;55953;51.650;-0.522;2023-04-03T04:40:40;102179.80;;;2.40
68911;BMP180;55953;51.650;-0.522;2023-04-03T04:43:09;102183.80;;;2.40
68911;BMP180;55953;51.650;-0.522;2023-04-03T04:45:38;102177.80;;;2.46
68911;BMP180;55953;51.650;-0.522;2023-04-03T04:48:07;102172.40;;;2.50
68911;BMP180;55953;51.650;-0.522;2023-04-03T04:50:35;102172.00;;;2.40
68911;BMP180;55953;51.650;-0.522;2023-04-03T04:53:03;102175.60;;;2.40
68911;BMP180;55953;51.650;-0.522;2023-04-03T04:55:31;102172.20;;;2.40
68911;BMP180;55953;51.650;-0.522;2023-04-03T04:57:59;102172.40;;;2.40
68911;BMP180;55953;51.650;-0.522;2023-04-03T05:00:27;102173.40;;;2.30
68911;BMP180;55953;51.650;-0.522;2023-04-03T05:02:56;102173.00;;;2.30
68911;BMP180;55953;51.650;-0.522;2023-04-03T05:05:24;102174.20;;;2.30
68911;BMP180;55953;51.650;-0.522;2023-04-03T05:07:53;102179.40;;;2.26
68911;BMP180;55953;51.650;-0.522;2023-04-03T05:10:21;102180.60;;;2.20
68911;BMP180;55953;51.650;-0.522;2023-04-03T05:12:49;102185.00;;;2.20
68911;BMP180;55953;51.650;-0.522;2023-04-03T05:15:17;102185.20;;;2.20
68911;BMP180;55953;51.650;-0.522;2023-04-03T05:17:46;102184.80;;;2.22
68911;BMP180;55953;51.650;-0.522;2023-04-03T05:20:15;102185.20;;;2.20
68911;BMP180;55953;51.650;-0.522;2023-04-03T05:22:45;102183.40;;;2.20
68911;BMP180;55953;51.650;-0.522;2023-04-03T05:25:14;102187.20;;;2.20
68911;BMP180;55953;51.650;-0.522;2023-04-03T05:27:43;102186.80;;;2.10
68911;BMP180;55953;51.650;-0.522;2023-04-03T05:30:12;102185.80;;;2.12
68911;BMP180;55953;51.650;-0.522;2023-04-03T05:32:41;102189.00;;;2.20
68911;BMP180;55953;51.650;-0.522;2023-04-03T05:35:23;102189.20;;;2.20
68911;BMP180;55953;51.650;-0.522;2023-04-03T05:37:53;102189.40;;;2.20
68911;BMP180;55953;51.650;-0.522;2023-04-03T05:40:21;102196.20;;;2.20
68911;BMP180;55953;51.650;-0.522;2023-04-03T05:42:51;102195.60;;;2.20
68911;BMP180;55953;51.650;-0.522;2023-04-03T05:45:22;102194.00;;;2.20
68911;BMP180;55953;51.650;-0.522;2023-04-03T05:47:50;102197.20;;;2.20
68911;BMP180;55953;51.650;-0.522;2023-04-03T05:50:19;102196.80;;;2.32
68911;BMP180;55953;51.650;-0.522;2023-04-03T05:52:53;102197.20;;;2.30
68911;BMP180;55953;51.650;-0.522;2023-04-03T05:55:26;102196.00;;;2.40
68911;BMP180;55953;51.650;-0.522;2023-04-03T05:57:54;102196.60;;;2.40
68911;BMP180;55953;51.650;-0.522;2023-04-03T06:00:22;102198.80;;;2.50
68911;BMP180;55953;51.650;-0.522;2023-04-03T06:02:56;102197.40;;;2.60
68911;BMP180;55953;51.650;-0.522;2023-04-03T06:05:24;102197.40;;;2.70
68911;BMP180;55953;51.650;-0.522;2023-04-03T06:07:53;102196.20;;;2.70
68911;BMP180;55953;51.650;-0.522;2023-04-03T06:10:21;102195.40;;;2.80
68911;BMP180;55953;51.650;-0.522;2023-04-03T06:12:50;102197.40;;;2.90
68911;BMP180;55953;51.650;-0.522;2023-04-03T06:15:18;102201.80;;;2.96
68911;BMP180;55953;51.650;-0.522;2023-04-03T06:17:48;102198.40;;;3.08
68911;BMP180;55953;51.650;-0.522;2023-04-03T06:20:17;102194.20;;;3.20
68911;BMP180;55953;51.650;-0.522;2023-04-03T06:22:45;102197.80;;;3.20
68911;BMP180;55953;51.650;-0.522;2023-04-03T06:25:14;102204.60;;;3.30
68911;BMP180;55953;51.650;-0.522;2023-04-03T06:27:42;102204.40;;;3.50
68911;BMP180;55953;51.650;-0.522;2023-04-03T06:30:10;102199.60;;;3.60
68911;BMP180;55953;51.650;-0.522;2023-04-03T06:32:39;102201.60;;;3.70
68911;BMP180;55953;51.650;-0.522;2023-04-03T06:35:07;102204.80;;;3.80
68911;BMP180;55953;51.650;-0.522;2023-04-03T06:37:36;102205.40;;;3.80
68911;BMP180;55953;51.650;-0.522;2023-04-03T06:40:05;102201.40;;;3.90
68911;BMP180;55953;51.650;-0.522;2023-04-03T06:42:33;102201.00;;;4.00
68911;BMP180;55953;51.650;-0.522;2023-04-03T06:45:08;102199.20;;;4.10
68911;BMP180;55953;51.650;-0.522;2023-04-03T06:47:37;102195.00;;;4.24
68911;BMP180;55953;51.650;-0.522;2023-04-03T06:50:05;102201.00;;;4.40
68911;BMP180;55953;51.650;-0.522;2023-04-03T06:52:34;102201.20;;;4.50
68911;BMP180;55953;51.650;-0.522;2023-04-03T06:55:03;102193.60;;;4.62
68911;BMP180;55953;51.650;-0.522;2023-04-03T06:57:31;102197.20;;;4.70
68911;BMP180;55953;51.650;-0.522;2023-04-03T06:59:59;102200.00;;;4.80
68911;BMP180;55953;51.650;-0.522;2023-04-03T07:02:27;102191.20;;;4.98
68911;BMP180;55953;51.650;-0.522;2023-04-03T07:04:55;102190.20;;;5.00
68911;BMP180;55953;51.650;-0.522;2023-04-03T07:07:23;102189.40;;;5.20
68911;BMP180;55953;51.650;-0.522;2023-04-03T07:09:51;102193.00;;;5.20
68911;BMP180;55953;51.650;-0.522;2023-04-03T07:12:20;102187.00;;;5.30
68911;BMP180;55953;51.650;-0.522;2023-04-03T07:14:48;102188.00;;;5.40
68911;BMP180;55953;51.650;-0.522;2023-04-03T07:17:17;102188.60;;;5.50
68911;BMP180;55953;51.650;-0.522;2023-04-03T07:19:45;102190.20;;;5.54
68911;BMP180;55953;51.650;-0.522;2023-04-03T07:22:13;102184.20;;;5.70
68911;BMP180;55953;51.650;-0.522;2023-04-03T07:24:40;102186.00;;;5.88
68911;BMP180;55953;51.650;-0.522;2023-04-03T07:27:09;102180.80;;;6.00
68911;BMP180;55953;51.650;-0.522;2023-04-03T07:29:40;102179.60;;;6.20
68911;BMP180;55953;51.650;-0.522;2023-04-03T07:32:08;102183.20;;;6.36
68911;BMP180;55953;51.650;-0.522;2023-04-03T07:34:36;102178.40;;;6.46
68911;BMP180;55953;51.650;-0.522;2023-04-03T07:37:04;102182.40;;;6.60
68911;BMP180;55953;51.650;-0.522;2023-04-03T07:39:32;102185.00;;;6.76
68911;BMP180;55953;51.650;-0.522;2023-04-03T07:42:01;102189.20;;;6.90
68911;BMP180;55953;51.650;-0.522;2023-04-03T07:44:29;102189.40;;;7.00
68911;BMP180;55953;51.650;-0.522;2023-04-03T07:46:58;102187.80;;;7.00
68911;BMP180;55953;51.650;-0.522;2023-04-03T07:49:27;102191.60;;;6.96
68911;BMP180;55953;51.650;-0.522;2023-04-03T07:51:56;102188.00;;;7.00
68911;BMP180;55953;51.650;-0.522;2023-04-03T07:54:24;102192.20;;;7.10
68911;BMP180;55953;51.650;-0.522;2023-04-03T07:56:52;102186.80;;;7.20
68911;BMP180;55953;51.650;-0.522;2023-04-03T07:59:20;102191.40;;;7.36
68911;BMP180;55953;51.650;-0.522;2023-04-03T08:01:48;102189.80;;;7.50
68911;BMP180;55953;51.650;-0.522;2023-04-03T08:04:16;102187.80;;;7.60
68911;BMP180;55953;51.650;-0.522;2023-04-03T08:06:44;102192.80;;;7.60
68911;BMP180;55953;51.650;-0.522;2023-04-03T08:09:15;102190.20;;;7.64
68911;BMP180;55953;51.650;-0.522;2023-04-03T08:11:43;102190.80;;;7.78
68911;BMP180;55953;51.650;-0.522;2023-04-03T08:14:12;102192.80;;;7.80
68911;BMP180;55953;51.650;-0.522;2023-04-03T08:16:47;102189.00;;;8.00
68911;BMP180;55953;51.650;-0.522;2023-04-03T08:19:16;102186.60;;;8.00
68911;BMP180;55953;51.650;-0.522;2023-04-03T08:21:54;102192.80;;;8.10
68911;BMP180;55953;51.650;-0.522;2023-04-03T08:24:22;102188.20;;;8.30
68911;BMP180;55953;51.650;-0.522;2023-04-03T08:26:50;102192.80;;;8.40
68911;BMP180;55953;51.650;-0.522;2023-04-03T08:29:18;102198.60;;;8.50
68911;BMP180;55953;51.650;-0.522;2023-04-03T08:31:46;102192.00;;;8.60
68911;BMP180;55953;51.650;-0.522;2023-04-03T08:34:15;102195.80;;;8.74
68911;BMP180;55953;51.650;-0.522;2023-04-03T08:36:43;102191.20;;;8.70
68911;BMP180;55953;51.650;-0.522;2023-04-03T08:39:12;102189.00;;;8.80
68911;BMP180;55953;51.650;-0.522;2023-04-03T08:41:42;102192.20;;;8.80
68911;BMP180;55953;51.650;-0.522;2023-04-03T08:47:28;102193.80;;;8.98
68911;BMP180;55953;51.650;-0.522;2023-04-03T08:50:02;102195.60;;;9.00
68911;BMP180;55953;51.650;-0.522;2023-04-03T08:52:38;102192.40;;;9.00
68911;BMP180;55953;51.650;-0.522;2023-04-03T08:58:09;102189.80;;;9.30
68911;BMP180;55953;51.650;-0.522;2023-04-03T09:00:55;102191.00;;;9.52
68911;BMP180;55953;51.650;-0.522;2023-04-03T09:03:25;102181.60;;;9.80
68911;BMP180;55953;51.650;-0.522;2023-04-03T09:06:16;102184.60;;;9.90
68911;BMP180;55953;51.650;-0.522;2023-04-03T09:15:22;102171.40;;;10.40
68911;BMP180;55953;51.650;-0.522;2023-04-03T09:18:23;102171.40;;;10.60
68911;BMP180;55953;51.650;-0.522;2023-04-03T09:21:30;102169.80;;;10.70
68911;BMP180;55953;51.650;-0.522;2023-04-03T09:24:01;102165.40;;;10.70
68911;BMP180;55953;51.650;-0.522;2023-04-03T09:26:58;102167.00;;;10.60
68911;BMP180;55953;51.650;-0.522;2023-04-03T09:29:28;102161.20;;;10.80
68911;BMP180;55953;51.650;-0.522;2023-04-03T09:32:19;102164.60;;;11.10
68911;BMP180;55953;51.650;-0.522;2023-04-03T09:34:49;102156.80;;;11.30
68911;BMP180;55953;51.650;-0.522;2023-04-03T09:37:44;102157.60;;;11.40
68911;BMP180;55953;51.650;-0.522;2023-04-03T09:43:01;102153.40;;;11.20
68911;BMP180;55953;51.650;-0.522;2023-04-03T09:45:33;102156.40;;;11.24
68911;BMP180;55953;51.650;-0.522;2023-04-03T09:53:42;102157.20;;;11.86
68911;BMP180;55953;51.650;-0.522;2023-04-03T09:59:07;102163.00;;;11.50
68911;BMP180;55953;51.650;-0.522;2023-04-03T10:01:39;102164.00;;;11.40
68911;BMP180;55953;51.650;-0.522;2023-04-03T10:04:17;102162.80;;;11.20
68911;BMP180;55953;51.650;-0.522;2023-04-03T10:06:53;102160.80;;;11.30
68911;BMP180;55953;51.650;-0.522;2023-04-03T10:09:29;102166.00;;;11.32
68911;BMP180;55953;51.650;-0.522;2023-04-03T10:12:05;102167.60;;;11.44
68911;BMP180;55953;51.650;-0.522;2023-04-03T10:14:37;102166.20;;;11.60
68911;BMP180;55953;51.650;-0.522;2023-04-03T10:17:49;102169.40;;;11.70
68911;BMP180;55953;51.650;-0.522;2023-04-03T10:20:39;102162.80;;;11.70
68911;BMP180;55953;51.650;-0.522;2023-04-03T10:23:39;102161.80;;;11.80
68911;BMP180;55953;51.650;-0.522;2023-04-03T10:32:42;102166.00;;;11.90
68911;BMP180;55953;51.650;-0.522;2023-04-03T10:41:07;102156.00;;;12.30
68911;BMP180;55953;51.650;-0.522;2023-04-03T10:44:30;102154.20;;;12.32
68911;BMP180;55953;51.650;-0.522;2023-04-03T10:47:17;102151.60;;;12.40
68911;BMP180;55953;51.650;-0.522;2023-04-03T10:50:22;102149.00;;;12.60
68911;BMP180;55953;51.650;-0.522;2023-04-03T10:55:57;102149.00;;;12.64
68911;BMP180;55953;51.650;-0.522;2023-04-03T10:58:36;102146.80;;;12.60
68911;BMP180;55953;51.650;-0.522;2023-04-03T11:01:14;102152.20;;;12.60
68911;BMP180;55953;51.650;-0.522;2023-04-03T11:03:52;102137.20;;;12.70
68911;BMP180;55953;51.650;-0.522;2023-04-03T11:06:28;102136.20;;;12.94
68911;BMP180;55953;51.650;-0.522;2023-04-03T11:09:27;102135.60;;;13.00
68911;BMP180;55953;51.650;-0.522;2023-04-03T11:14:58;102131.40;;;12.90
68911;BMP180;55953;51.650;-0.522;2023-04-03T11:17:35;102131.60;;;12.92
68911;BMP180;55953;51.650;-0.522;2023-04-03T11:20:20;102128.40;;;13.08
68911;BMP180;55953;51.650;-0.522;2023-04-03T11:23:06;102129.80;;;13.00
68911;BMP180;55953;51.650;-0.522;2023-04-03T11:25:41;102125.20;;;13.00
68911;BMP180;55953;51.650;-0.522;2023-04-03T11:28:13;102120.40;;;13.10
68911;BMP180;55953;51.650;-0.522;2023-04-03T11:36:49;102106.80;;;13.10
68911;BMP180;55953;51.650;-0.522;2023-04-03T11:39:31;102109.60;;;13.24
68911;BMP180;55953;51.650;-0.522;2023-04-03T11:50:52;102101.00;;;13.58
68911;BMP180;55953;51.650;-0.522;2023-04-03T11:53:35;102095.00;;;13.68
68911;BMP180;55953;51.650;-0.522;2023-04-03T12:01:55;102093.60;;;14.10
68911;BMP180;55953;51.650;-0.522;2023-04-03T12:04:26;102090.00;;;13.90
68911;BMP180;55953;51.650;-0.522;2023-04-03T12:07:16;102093.60;;;13.70
68911;BMP180;55953;51.650;-0.522;2023-04-03T12:12:30;102078.40;;;13.80
68911;BMP180;55953;51.650;-0.522;2023-04-03T12:15:41;102075.00;;;14.00
68911;BMP180;55953;51.650;-0.522;2023-04-03T12:35:18;102066.20;;;13.46
68911;BMP180;55953;51.650;-0.522;2023-04-03T12:41:41;102061.00;;;13.60
68911;BMP180;55953;51.650;-0.522;2023-04-03T12:47:16;102050.40;;;13.70
68911;BMP180;55953;51.650;-0.522;2023-04-03T12:49:46;102045.20;;;14.00
68911;BMP180;55953;51.650;-0.522;2023-04-03T12:52:34;102047.00;;;14.00
68911;BMP180;55953;51.650;-0.522;2023-04-03T12:55:14;102044.20;;;13.70
68911;BMP180;55953;51.650;-0.522;2023-04-03T12:57:43;102045.80;;;13.50
68911;BMP180;55953;51.650;-0.522;2023-04-03T13:00:34;102040.40;;;13.60
68911;BMP180;55953;51.650;-0.522;2023-04-03T13:03:05;102034.80;;;13.78
68911;BMP180;55953;51.650;-0.522;2023-04-03T13:05:34;102028.20;;;13.80
68911;BMP180;55953;51.650;-0.522;2023-04-03T13:08:10;102032.80;;;13.92
68911;BMP180;55953;51.650;-0.522;2023-04-03T13:11:02;102032.20;;;14.10
68911;BMP180;55953;51.650;-0.522;2023-04-03T13:13:30;102029.40;;;14.10
68911;BMP180;55953;51.650;-0.522;2023-04-03T13:15:58;102022.80;;;14.20
68911;BMP180;55953;51.650;-0.522;2023-04-03T13:18:32;102019.60;;;14.20
68911;BMP180;55953;51.650;-0.522;2023-04-03T13:21:04;102017.40;;;14.20
68911;BMP180;55953;51.650;-0.522;2023-04-03T13:23:36;102017.20;;;14.10
68911;BMP180;55953;51.650;-0.522;2023-04-03T13:26:07;102012.00;;;14.00
68911;BMP180;55953;51.650;-0.522;2023-04-03T13:28:38;102014.40;;;14.00
68911;BMP180;55953;51.650;-0.522;2023-04-03T13:31:22;102008.80;;;14.00
68911;BMP180;55953;51.650;-0.522;2023-04-03T13:34:02;102006.60;;;14.00
68911;BMP180;55953;51.650;-0.522;2023-04-03T13:36:34;102011.20;;;14.00
68911;BMP180;55953;51.650;-0.522;2023-04-03T13:41:50;102004.20;;;14.20
68911;BMP180;55953;51.650;-0.522;2023-04-03T13:50:04;102007.80;;;14.30
68911;BMP180;55953;51.650;-0.522;2023-04-03T13:52:43;102012.60;;;14.30
68911;BMP180;55953;51.650;-0.522;2023-04-03T13:55:25;102004.60;;;14.34
68911;BMP180;55953;51.650;-0.522;2023-04-03T13:58:21;102000.60;;;14.30
68911;BMP180;55953;51.650;-0.522;2023-04-03T14:01:21;102002.80;;;14.30
68911;BMP180;55953;51.650;-0.522;2023-04-03T14:03:58;101997.00;;;14.40
68911;BMP180;55953;51.650;-0.522;2023-04-03T14:06:27;101997.60;;;14.32
68911;BMP180;55953;51.650;-0.522;2023-04-03T14:08:56;101994.60;;;14.30
68911;BMP180;55953;51.650;-0.522;2023-04-03T14:11:30;101986.80;;;14.20
68911;BMP180;55953;51.650;-0.522;2023-04-03T14:14:05;101987.00;;;14.30
68911;BMP180;55953;51.650;-0.522;2023-04-03T14:16:39;101976.60;;;14.40
68911;BMP180;55953;51.650;-0.522;2023-04-03T14:19:23;101976.20;;;14.40
68911;BMP180;55953;51.650;-0.522;2023-04-03T14:21:53;101962.20;;;14.50
68911;BMP180;55953;51.650;-0.522;2023-04-03T14:24:23;101962.60;;;14.50
68911;BMP180;55953;51.650;-0.522;2023-04-03T14:26:54;101964.60;;;14.44
68911;BMP180;55953;51.650;-0.522;2023-04-03T14:29:23;101955.80;;;14.48
68911;BMP180;55953;51.650;-0.522;2023-04-03T14:31:51;101957.40;;;14.60
68911;BMP180;55953;51.650;-0.522;2023-04-03T14:34:38;101956.60;;;14.60
68911;BMP180;55953;51.650;-0.522;2023-04-03T14:37:18;101957.20;;;14.60
68911;BMP180;55953;51.650;-0.522;2023-04-03T14:39:47;101958.40;;;14.50
68911;BMP180;55953;51.650;-0.522;2023-04-03T14:42:30;101951.20;;;14.50
68911;BMP180;55953;51.650;-0.522;2023-04-03T14:45:11;101944.80;;;14.60
68911;BMP180;55953;51.650;-0.522;2023-04-03T14:47:48;101952.20;;;14.60
68911;BMP180;55953;51.650;-0.522;2023-04-03T14:50:21;101947.00;;;14.66
68911;BMP180;55953;51.650;-0.522;2023-04-03T14:52:56;101942.80;;;14.60
68911;BMP180;55953;51.650;-0.522;2023-04-03T14:55:27;101938.00;;;14.60
68911;BMP180;55953;51.650;-0.522;2023-04-03T14:57:56;101932.60;;;14.60
68911;BMP180;55953;51.650;-0.522;2023-04-03T15:00:24;101933.00;;;14.60
68911;BMP180;55953;51.650;-0.522;2023-04-03T15:02:51;101935.60;;;14.68
68911;BMP180;55953;51.650;-0.522;2023-04-03T15:05:20;101932.60;;;14.60
68911;BMP180;55953;51.650;-0.522;2023-04-03T15:07:53;101928.00;;;14.50
68911;BMP180;55953;51.650;-0.522;2023-04-03T15:10:28;101927.40;;;14.60
68911;BMP180;55953;51.650;-0.522;2023-04-03T15:12:57;101927.40;;;14.60
68911;BMP180;55953;51.650;-0.522;2023-04-03T15:15:28;101925.80;;;14.50
68911;BMP180;55953;51.650;-0.522;2023-04-03T15:17:57;101918.00;;;14.50
68911;BMP180;55953;51.650;-0.522;2023-04-03T15:20:29;101921.60;;;14.42
68911;BMP180;55953;51.650;-0.522;2023-04-03T15:23:00;101915.00;;;14.50
68911;BMP180;55953;51.650;-0.522;2023-04-03T15:25:29;101914.80;;;14.40
68911;BMP180;55953;51.650;-0.522;2023-04-03T15:27:58;101907.60;;;14.40
68911;BMP180;55953;51.650;-0.522;2023-04-03T15:30:26;101911.80;;;14.40
68911;BMP180;55953;51.650;-0.522;2023-04-03T15:32:53;101917.40;;;14.40
68911;BMP180;55953;51.650;-0.522;2023-04-03T15:35:22;101911.20;;;14.50
68911;BMP180;55953;51.650;-0.522;2023-04-03T15:37:50;101910.40;;;14.40
68911;BMP180;55953;51.650;-0.522;2023-04-03T15:40:18;101912.20;;;14.30
68911;BMP180;55953;51.650;-0.522;2023-04-03T15:42:46;101914.20;;;14.40
68911;BMP180;55953;51.650;-0.522;2023-04-03T15:45:14;101914.00;;;14.40
68911;BMP180;55953;51.650;-0.522;2023-04-03T15:47:42;101922.00;;;14.42
68911;BMP180;55953;51.650;-0.522;2023-04-03T15:50:10;101919.00;;;14.40
68911;BMP180;55953;51.650;-0.522;2023-04-03T15:52:39;101924.00;;;14.30
68911;BMP180;55953;51.650;-0.522;2023-04-03T15:55:07;101919.20;;;14.20
68911;BMP180;55953;51.650;-0.522;2023-04-03T15:57:35;101917.80;;;14.20
68911;BMP180;55953;51.650;-0.522;2023-04-03T16:00:09;101920.00;;;14.00
68911;BMP180;55953;51.650;-0.522;2023-04-03T16:02:37;101923.80;;;13.90
68911;BMP180;55953;51.650;-0.522;2023-04-03T16:05:09;101918.60;;;13.82
68911;BMP180;55953;51.650;-0.522;2023-04-03T16:07:41;101929.00;;;13.80